Time;durP1;ratioP1;P1;durP2;ratioP2;P2;SDS_P1;SDS_P2;PMS_P1;PMS_P2;Temp;Humidity;BMP_temperature;BMP_pressure;BME280_temperature;BME280_humidity;BME280_pressure;Samples;Min_cycle;Max_cycle;Signal;HPM_P1;HPM_P2
2022/10/19 00:01:19;;;;;;;11.53;6.75;;;;;;;13.14;46.71;100203.75;1724827;83;21459;-70
2022/10/19 00:03:52;;;;;;;8.53;6.70;;;;;;;13.12;46.76;100201.80;1725424;83;21036;-76
2022/10/19 00:06:30;;;;;;;9.70;6.37;;;;;;;13.10;46.81;100192.64;1724968;82;21125;-71
2022/10/19 00:09:04;;;;;;;12.40;6.60;;;;;;;13.07;46.93;100186.36;1724671;82;21121;-68
2022/10/19 00:11:34;;;;;;;12.80;7.53;;;;;;;13.05;46.93;100182.58;1725040;83;21028;-68
2022/10/19 00:14:01;;;;;;;10.30;6.65;;;;;;;13.05;47.14;100183.91;1724892;83;20991;-71
2022/10/19 00:16:32;;;;;;;9.30;6.25;;;;;;;13.06;47.15;100175.36;1724707;82;21006;-69
2022/10/19 00:19:03;;;;;;;11.43;6.90;;;;;;;13.04;47.43;100165.39;1725068;83;21027;-68
2022/10/19 00:22:50;;;;;;;15.32;6.55;;;;;;;13.02;47.66;100159.42;1802134;79;22531;-70
2022/10/19 00:25:16;;;;;;;13.13;6.97;;;;;;;12.93;47.69;100156.13;1748309;81;21262;-69
2022/10/19 00:27:42;;;;;;;12.20;6.97;;;;;;;12.88;47.69;100151.91;1735014;82;21064;-68
2022/10/19 00:30:08;;;;;;;10.20;7.30;;;;;;;12.88;47.80;100150.58;1734862;80;21092;-70
2022/10/19 00:32:35;;;;;;;10.75;7.20;;;;;;;12.87;47.95;100142.27;1734483;82;21462;-72
2022/10/19 00:35:02;;;;;;;15.60;6.97;;;;;;;12.88;47.91;100135.86;1734579;83;21060;-73
2022/10/19 00:37:29;;;;;;;11.57;7.08;;;;;;;12.88;47.89;100128.36;1734607;82;21502;-69
2022/10/19 00:39:55;;;;;;;8.78;6.95;;;;;;;12.88;48.36;100125.16;1734807;82;21533;-72
2022/10/19 00:42:21;;;;;;;11.25;8.75;;;;;;;12.84;48.54;100121.27;1734607;82;21568;-69
2022/10/19 00:44:52;;;;;;;12.00;7.22;;;;;;;12.81;48.74;100120.36;1734891;80;20993;-69
2022/10/19 00:47:22;;;;;;;9.35;6.40;;;;;;;12.78;48.66;100118.09;1734908;82;21100;-70
2022/10/19 00:49:48;;;;;;;14.15;7.97;;;;;;;12.76;48.63;100106.27;1729023;81;21001;-70
2022/10/19 00:52:19;;;;;;;8.43;6.58;;;;;;;12.78;48.65;100106.06;1762448;81;21092;-70
2022/10/19 00:54:48;;;;;;;13.53;7.30;;;;;;;12.78;48.61;100099.38;1734654;83;21080;-76
2022/10/19 00:57:15;;;;;;;9.40;6.92;;;;;;;12.79;48.71;100096.98;1734685;80;21179;-69
2022/10/19 00:59:44;;;;;;;10.20;6.95;;;;;;;12.79;48.83;100092.48;1734683;83;21506;-70
2022/10/19 01:02:11;;;;;;;9.35;6.50;;;;;;;12.80;48.88;100084.75;1733966;82;21124;-71
2022/10/19 01:04:43;;;;;;;9.75;7.33;;;;;;;12.79;48.95;100079.11;1701505;83;21009;-71
2022/10/19 01:07:10;;;;;;;15.85;7.05;;;;;;;12.80;48.96;100078.59;1676919;85;21074;-72
2022/10/19 01:09:36;;;;;;;11.05;7.47;;;;;;;12.80;49.09;100081.27;1684705;84;21146;-69
2022/10/19 01:12:11;;;;;;;9.43;6.70;;;;;;;12.79;49.13;100072.42;1713660;83;21546;-70
2022/10/19 01:15:13;;;;;;;8.63;6.73;;;;;;;12.78;49.23;100072.62;1713674;83;21042;-69
2022/10/19 01:18:08;;;;;;;11.25;7.50;;;;;;;12.77;49.42;100066.96;1694347;83;21093;-69
2022/10/19 01:21:08;;;;;;;16.50;7.53;;;;;;;12.75;49.78;100063.67;1684198;84;21053;-67
2022/10/19 01:23:54;;;;;;;12.30;8.20;;;;;;;12.72;50.05;100064.11;1684899;85;21069;-68
2022/10/19 01:26:47;;;;;;;11.45;8.10;;;;;;;12.71;50.24;100062.45;1684843;84;21021;-68
2022/10/19 01:30:02;;;;;;;14.70;7.20;;;;;;;12.71;50.34;100053.91;1684804;84;21044;-70
2022/10/19 01:32:56;;;;;;;10.43;7.90;;;;;;;12.74;50.66;100054.84;1684787;84;21084;-71
2022/10/19 01:35:47;;;;;;;11.43;7.75;;;;;;;12.75;50.77;100055.66;1684788;85;21018;-69
2022/10/19 01:38:47;;;;;;;17.20;8.08;;;;;;;12.76;50.93;100052.78;1684487;84;21080;-69
2022/10/19 01:41:22;;;;;;;10.00;6.47;;;;;;;12.79;51.22;100050.19;1684265;84;21554;-70
2022/10/19 01:44:02;;;;;;;15.63;9.27;;;;;;;12.80;51.48;100044.63;1684532;85;21144;-74
2022/10/19 01:46:35;;;;;;;14.58;8.20;;;;;;;12.84;51.70;100041.84;1681265;84;21053;-69
2022/10/19 01:49:32;;;;;;;15.72;7.83;;;;;;;12.87;52.23;100035.27;1684434;84;21058;-68
2022/10/19 01:52:03;;;;;;;11.97;7.97;;;;;;;12.90;52.47;100038.84;1684717;85;21113;-68
2022/10/19 01:54:35;;;;;;;13.40;7.87;;;;;;;12.93;52.64;100029.59;1684683;85;21097;-77
2022/10/19 01:57:05;;;;;;;11.22;8.93;;;;;;;12.96;52.83;100029.98;1684599;85;21081;-70
2022/10/19 01:59:33;;;;;;;11.50;7.20;;;;;;;13.00;53.02;100018.35;1684410;85;21113;-69
2022/10/19 02:02:02;;;;;;;12.45;8.38;;;;;;;13.03;53.18;100018.75;1684455;84;21153;-69
2022/10/19 02:04:30;;;;;;;16.02;9.18;;;;;;;13.05;53.47;100018.02;1684464;85;21085;-70
2022/10/19 02:07:00;;;;;;;13.65;8.50;;;;;;;13.05;53.57;100011.83;1684296;85;21550;-73
2022/10/19 02:09:27;;;;;;;18.95;9.05;;;;;;;13.05;53.64;100015.34;1684256;84;21054;-68
2022/10/19 02:11:58;;;;;;;12.50;8.40;;;;;;;13.09;53.93;100016.23;1684210;85;21062;-74
2022/10/19 02:14:38;;;;;;;13.15;7.80;;;;;;;13.10;53.99;100014.70;1684110;85;21038;-70
2022/10/19 02:17:09;;;;;;;15.58;8.78;;;;;;;13.10;54.14;100013.36;1684086;84;21050;-69
2022/10/19 02:19:37;;;;;;;12.70;8.93;;;;;;;12.80;54.34;99960.39;1683854;85;21109;-71
2022/10/19 02:22:04;;;;;;;10.30;8.43;;;;;;;13.11;54.49;100003.47;1677906;85;21140;-71
2022/10/19 02:24:30;;;;;;;16.20;8.98;;;;;;;13.11;54.75;100008.32;1668925;85;21066;-73
2022/10/19 02:26:59;;;;;;;18.15;9.98;;;;;;;13.10;55.07;99999.16;1697679;84;21072;-69
2022/10/19 02:29:26;;;;;;;14.68;8.03;;;;;;;13.07;55.18;100008.94;1723642;82;21010;-70
2022/10/19 02:31:52;;;;;;;18.85;9.68;;;;;;;13.07;55.64;99998.24;1743795;82;21296;-71
2022/10/19 02:34:19;;;;;;;12.35;7.95;;;;;;;13.03;55.66;100002.70;1729127;82;21021;-68
2022/10/19 02:36:45;;;;;;;;;;;;;;;12.70;56.09;99949.86;1730728;82;21060;-71
2022/10/19 02:39:11;;;;;;;10.85;9.68;;;;;;;12.95;56.24;100000.25;1727949;82;20149;-68
2022/10/19 02:41:45;;;;;;;19.52;9.05;;;;;;;12.87;56.59;100004.51;1727922;82;21017;-71
2022/10/19 02:44:19;;;;;;;11.53;8.43;;;;;;;12.87;57.56;100009.05;1727761;82;21037;-69
2022/10/19 02:46:54;;;;;;;13.30;8.98;;;;;;;12.82;57.71;99998.44;1721418;83;21097;-69
2022/10/19 02:49:22;;;;;;;12.07;9.08;;;;;;;12.79;58.09;100000.70;1727570;82;20962;-70
2022/10/19 02:51:59;;;;;;;12.40;7.92;;;;;;;12.75;58.36;100002.17;1728364;83;21601;-70
2022/10/19 02:54:26;;;;;;;11.43;8.93;;;;;;;12.72;58.86;100003.95;1666608;83;21042;-73
2022/10/19 02:56:54;;;;;;;13.10;10.30;;;;;;;12.71;59.67;100003.63;1675656;85;21097;-72
2022/10/19 02:59:20;;;;;;;16.87;10.40;;;;;;;12.67;59.71;100007.23;1666533;86;21321;-69
2022/10/19 03:01:47;;;;;;;15.23;9.33;;;;;;;12.63;60.05;100012.17;1689421;85;21922;-70
2022/10/19 03:04:14;;;;;;;15.65;10.80;;;;;;;12.59;60.08;100002.13;1695044;85;21069;-71
2022/10/19 03:06:40;;;;;;;13.32;10.05;;;;;;;12.56;60.08;99998.52;1631051;87;21042;-69
2022/10/19 03:09:07;;;;;;;16.20;9.25;;;;;;;12.56;59.92;99998.52;1718755;82;21045;-72
2022/10/19 03:11:34;;;;;;;16.95;9.88;;;;;;;12.56;60.22;99992.65;1751627;82;20998;-71
2022/10/19 03:14:02;;;;;;;14.38;9.68;;;;;;;12.55;60.18;99987.54;1736974;82;20985;-69
2022/10/19 03:16:28;;;;;;;15.05;9.55;;;;;;;12.54;60.77;99982.69;1730206;83;21053;-72
2022/10/19 03:18:54;;;;;;;16.57;10.45;;;;;;;12.50;61.31;99988.67;1715796;83;21022;-71
2022/10/19 03:21:21;;;;;;;14.25;10.60;;;;;;;12.49;61.32;99986.52;1715486;83;21100;-70
2022/10/19 03:23:47;;;;;;;;;;;;;;;12.48;61.93;99990.73;1718325;83;21050;-68
2022/10/19 03:26:16;;;;;;;18.23;10.60;;;;;;;12.48;61.89;99988.06;1715427;84;20111;-75
2022/10/19 03:28:42;;;;;;;13.50;10.18;;;;;;;12.43;62.49;99986.00;1715619;84;21256;-70
2022/10/19 03:31:09;;;;;;;13.95;10.68;;;;;;;12.43;62.63;99982.84;1689893;84;21101;-74
2022/10/19 03:33:35;;;;;;;15.98;10.60;;;;;;;12.44;62.45;99980.97;1715515;83;21562;-70
2022/10/19 03:36:25;;;;;;;16.70;10.65;;;;;;;12.45;62.46;99976.77;1715629;83;21259;-70
2022/10/19 03:38:57;;;;;;;16.20;9.95;;;;;;;12.49;62.50;99974.98;1709453;84;21049;-72
2022/10/19 03:41:28;;;;;;;11.48;9.90;;;;;;;12.49;62.87;99969.14;1715326;83;21037;-73
2022/10/19 03:43:55;;;;;;;13.22;10.80;;;;;;;12.49;63.39;99972.31;1715462;83;21267;-72
2022/10/19 03:46:22;;;;;;;20.88;12.15;;;;;;;12.47;63.21;99967.20;1715354;83;21148;-69
2022/10/19 03:48:49;;;;;;;13.48;10.85;;;;;;;12.45;63.48;99958.55;1715269;83;20991;-72
2022/10/19 03:51:20;;;;;;;16.20;12.25;;;;;;;12.44;63.57;99960.41;1715172;83;21157;-70
2022/10/19 03:53:54;;;;;;;13.93;11.30;;;;;;;12.44;63.83;99954.25;1715195;83;21589;-72
2022/10/19 03:56:23;;;;;;;12.85;10.70;;;;;;;12.43;63.85;99960.11;1715266;83;21547;-69
2022/10/19 03:58:51;;;;;;;15.00;11.48;;;;;;;12.44;63.83;99964.94;1715002;83;21022;-75
2022/10/19 04:01:22;;;;;;;19.37;10.80;;;;;;;12.46;63.74;99964.20;1715246;83;21141;-70
2022/10/19 04:03:54;;;;;;;15.32;11.00;;;;;;;12.48;64.31;99960.81;1715256;84;21923;-70
2022/10/19 04:06:28;;;;;;;13.50;10.85;;;;;;;12.47;64.27;99956.52;1708184;84;21066;-73
2022/10/19 04:08:56;;;;;;;14.78;10.53;;;;;;;12.48;64.40;99946.11;1721706;82;21556;-71
2022/10/19 04:11:26;;;;;;;25.50;11.93;;;;;;;12.50;64.56;99961.94;1737609;82;21811;-68
2022/10/19 04:13:55;;;;;;;13.93;10.80;;;;;;;12.52;64.49;99963.88;1737368;82;21077;-75
2022/10/19 04:16:22;;;;;;;14.47;11.80;;;;;;;12.53;64.99;99965.02;1737340;82;21047;-69
2022/10/19 04:18:49;;;;;;;17.42;12.30;;;;;;;12.50;65.20;99974.78;1737736;82;21065;-69
2022/10/19 04:21:34;;;;;;;16.40;11.15;;;;;;;12.47;65.34;99979.23;1737587;82;21031;-70
2022/10/19 04:24:05;;;;;;;14.40;11.30;;;;;;;12.47;65.63;99985.91;1737278;82;21122;-73
2022/10/19 04:26:33;;;;;;;20.27;11.77;;;;;;;12.46;65.93;99977.05;1737659;82;21003;-71
2022/10/19 04:29:01;;;;;;;12.88;11.50;;;;;;;12.47;66.11;99979.23;1725628;82;21650;-70
2022/10/19 04:31:28;;;;;;;17.42;11.38;;;;;;;12.48;66.97;99971.50;1708067;84;21059;-71
2022/10/19 04:33:55;;;;;;;14.35;12.00;;;;;;;12.46;67.49;99977.58;1708003;84;21589;-70
2022/10/19 04:36:23;;;;;;;12.90;11.33;;;;;;;12.42;67.76;99977.69;1707854;84;21118;-72
2022/10/19 04:38:49;;;;;;;19.00;12.68;;;;;;;12.41;68.21;99972.03;1707995;84;21035;-71
2022/10/19 04:41:18;;;;;;;16.60;11.97;;;;;;;12.40;68.24;99973.89;1707803;84;21152;-71
2022/10/19 04:43:46;;;;;;;18.52;12.88;;;;;;;12.42;68.13;99972.34;1707628;84;21084;-76
2022/10/19 04:46:17;;;;;;;19.20;11.95;;;;;;;12.42;68.97;99971.01;1696271;84;21938;-75
2022/10/19 04:48:46;;;;;;;21.82;11.70;;;;;;;12.40;69.01;99977.08;1695727;83;21556;-74
2022/10/19 04:51:14;;;;;;;24.80;12.88;;;;;;;12.41;69.03;99976.88;1695338;85;21117;-74
2022/10/19 04:53:41;;;;;;;32.40;13.60;;;;;;;12.45;69.23;99975.92;1695677;84;21014;-75
2022/10/19 04:56:19;;;;;;;17.00;12.55;;;;;;;12.49;69.20;99966.97;1695367;83;21169;-77
2022/10/19 04:58:46;;;;;;;18.37;13.25;;;;;;;12.53;70.23;99978.39;1694655;85;21118;-74
2022/10/19 05:01:19;;;;;;;20.17;11.70;;;;;;;12.23;70.02;99917.39;1695476;84;21171;-77
2022/10/19 05:03:46;;;;;;;15.95;12.03;;;;;;;12.56;70.94;99965.91;1695015;84;21066;-74
2022/10/19 05:06:15;;;;;;;19.37;12.58;;;;;;;12.58;71.48;99988.44;1695147;84;21014;-75
2022/10/19 05:08:41;;;;;;;19.17;13.60;;;;;;;12.58;71.74;99985.27;1695314;84;21133;-77
2022/10/19 05:11:13;;;;;;;17.45;12.63;;;;;;;12.59;72.20;99990.91;1695370;85;21102;-75
2022/10/19 05:13:42;;;;;;;14.68;12.78;;;;;;;12.60;72.79;99987.22;1695528;84;21030;-75
2022/10/19 05:16:12;;;;;;;15.58;12.60;;;;;;;12.60;73.79;100000.58;1695662;85;20995;-77
2022/10/19 05:18:40;;;;;;;20.10;13.95;;;;;;;12.59;75.15;100006.13;1695832;85;20987;-77
2022/10/19 05:21:10;;;;;;;20.05;14.20;;;;;;;12.55;76.06;100020.43;1695615;83;21115;-75
2022/10/19 05:23:37;;;;;;;21.52;12.68;;;;;;;12.51;76.75;100026.39;1695205;85;21142;-76
2022/10/19 05:26:15;;;;;;;17.75;13.22;;;;;;;12.48;76.85;100030.31;1695283;84;21022;-81
2022/10/19 05:28:56;;;;;;;17.02;13.08;;;;;;;12.48;77.40;100030.31;1695505;84;21093;-76
2022/10/19 05:31:26;;;;;;;17.35;12.47;;;;;;;12.49;77.36;100032.46;1695660;85;21050;-76
2022/10/19 05:33:55;;;;;;;16.85;12.78;;;;;;;12.48;77.76;100010.27;1695195;84;21138;-77
2022/10/19 05:36:33;;;;;;;17.73;12.18;;;;;;;12.50;78.31;100018.89;1695632;83;21292;-77
2022/10/19 05:39:13;;;;;;;17.73;12.60;;;;;;;12.49;79.26;100019.94;1695860;85;21090;-77
2022/10/19 05:41:42;;;;;;;13.75;11.57;;;;;;;12.49;79.37;100026.63;1695369;84;21557;-78
2022/10/19 05:44:14;;;;;;;16.67;11.85;;;;;;;12.49;80.14;100027.95;1695799;83;21165;-77
2022/10/19 05:46:40;;;;;;;16.37;12.15;;;;;;;12.49;80.89;100029.30;1712986;83;21050;-75
2022/10/19 05:49:06;;;;;;;21.35;18.92;;;;;;;12.45;80.59;100032.05;1712766;84;21034;-79
2022/10/19 05:51:33;;;;;;;15.03;12.05;;;;;;;12.45;80.37;100044.92;1713019;84;21047;-75
2022/10/19 05:54:01;;;;;;;19.80;13.60;;;;;;;12.48;80.58;100054.89;1698861;84;21184;-77
2022/10/19 05:56:29;;;;;;;22.15;17.25;;;;;;;12.50;80.84;100045.62;1671577;84;22081;-76
2022/10/19 05:58:59;;;;;;;13.53;11.53;;;;;;;12.53;81.19;100040.39;1715512;83;21007;-77
2022/10/19 06:01:29;;;;;;;13.72;10.63;;;;;;;12.52;81.21;100047.57;1715364;83;21054;-76
2022/10/19 06:03:58;;;;;;;13.32;10.43;;;;;;;12.51;81.30;100046.44;1715103;83;21872;-78
2022/10/19 06:06:29;;;;;;;12.10;9.43;;;;;;;12.49;81.54;100049.34;1715330;84;21065;-73
2022/10/19 06:08:57;;;;;;;12.55;10.48;;;;;;;12.44;81.72;100049.14;1715154;84;21109;-76
2022/10/19 06:11:32;;;;;;;13.43;10.72;;;;;;;12.42;81.96;100055.20;1715586;84;21090;-74
2022/10/19 06:14:03;;;;;;;13.65;11.20;;;;;;;12.41;82.24;100068.25;1715203;83;21479;-79
2022/10/19 06:16:32;;;;;;;12.40;9.65;;;;;;;12.44;82.38;100074.01;1715016;83;21037;-76
2022/10/19 06:18:58;;;;;;;12.03;9.45;;;;;;;12.46;82.55;100081.83;1715237;83;21518;-74
2022/10/19 06:21:29;;;;;;;10.48;9.05;;;;;;;12.45;82.58;100089.52;1714933;83;22026;-73
2022/10/19 06:24:01;;;;;;;12.33;10.65;;;;;;;12.46;82.91;100088.51;1715245;84;21102;-74
2022/10/19 06:26:29;;;;;;;9.30;8.18;;;;;;;12.49;82.85;100080.58;1715133;82;21050;-77
2022/10/19 06:28:59;;;;;;;11.28;8.18;;;;;;;12.20;82.61;100034.55;1715013;84;21091;-75
2022/10/19 06:31:27;;;;;;;8.40;6.08;;;;;;;12.50;82.90;100076.89;1715390;84;21663;-76
2022/10/19 06:33:53;;;;;;;12.43;6.97;;;;;;;12.55;82.30;100087.27;1715161;83;21038;-75
2022/10/19 06:36:25;;;;;;;11.18;6.90;;;;;;;12.60;82.18;100083.47;1715150;83;21014;-77
2022/10/19 06:38:52;;;;;;;9.48;6.80;;;;;;;12.63;81.99;100088.37;1715025;83;21101;-73
2022/10/19 06:41:19;;;;;;;6.95;5.95;;;;;;;12.64;81.92;100094.57;1715013;83;21038;-72
2022/10/19 06:43:53;;;;;;;6.67;5.22;;;;;;;12.62;81.54;100098.78;1715545;83;21072;-73
2022/10/19 06:46:22;;;;;;;7.72;5.45;;;;;;;12.64;81.44;100106.08;1714596;84;21041;-74
2022/10/19 06:49:01;;;;;;;5.17;4.58;;;;;;;12.66;81.11;100101.34;1715423;83;21570;-69
2022/10/19 06:51:29;;;;;;;12.98;5.60;;;;;;;12.66;80.60;100108.55;1715261;84;21053;-72
2022/10/19 06:53:55;;;;;;;7.30;5.12;;;;;;;12.63;80.43;100108.95;1715250;83;21033;-70
2022/10/19 06:56:23;;;;;;;4.83;3.65;;;;;;;12.65;80.13;100109.05;1714895;84;21137;-70
2022/10/19 06:58:53;;;;;;;7.15;4.12;;;;;;;12.71;79.63;100110.59;1715054;83;21169;-71
2022/10/19 07:01:19;;;;;;;5.53;3.80;;;;;;;12.74;79.40;100114.20;1715059;83;21165;-73
2022/10/19 07:03:45;;;;;;;5.17;3.12;;;;;;;12.78;79.19;100114.08;1715397;83;21025;-77
2022/10/19 07:06:13;;;;;;;5.55;2.90;;;;;;;12.82;78.73;100119.31;1715092;83;21041;-73
2022/10/19 07:08:41;;;;;;;3.40;2.75;;;;;;;12.85;78.29;100118.91;1715176;84;21065;-75
2022/10/19 07:11:13;;;;;;;2.75;2.35;;;;;;;12.87;77.94;100123.54;1715212;83;21042;-73
2022/10/19 07:13:39;;;;;;;2.00;1.40;;;;;;;12.90;77.49;100124.96;1715162;84;21006;-73
2022/10/19 07:16:11;;;;;;;1.32;1.22;;;;;;;12.63;77.35;100075.53;1714733;83;21045;-74
2022/10/19 07:18:39;;;;;;;1.47;0.90;;;;;;;12.90;77.09;100122.28;1715109;84;21701;-74
2022/10/19 07:21:13;;;;;;;3.08;0.98;;;;;;;12.92;76.57;100126.42;1715027;84;21053;-74
2022/10/19 07:23:42;;;;;;;1.27;0.80;;;;;;;12.96;76.29;100126.30;1715040;83;21105;-74
2022/10/19 07:26:15;;;;;;;0.60;0.42;;;;;;;12.99;75.31;100117.84;1715075;83;21032;-76
2022/10/19 07:28:45;;;;;;;3.50;0.33;;;;;;;12.97;75.02;100115.08;1715495;83;21562;-78
2022/10/19 07:31:16;;;;;;;1.98;0.40;;;;;;;12.97;74.62;100113.22;1715310;84;21098;-73
2022/10/19 07:33:43;;;;;;;0.57;0.40;;;;;;;12.99;74.70;100116.50;1714893;83;21021;-74
2022/10/19 07:36:12;;;;;;;1.20;0.50;;;;;;;13.03;74.37;100123.59;1714890;84;21121;-74
2022/10/19 07:38:39;;;;;;;2.02;0.57;;;;;;;13.09;74.31;100111.23;1715345;83;21090;-73
2022/10/19 07:41:11;;;;;;;1.42;0.60;;;;;;;13.14;73.91;100116.26;1715098;83;21359;-77
2022/10/19 07:43:38;;;;;;;4.22;0.40;;;;;;;13.19;73.42;100113.78;1715310;83;21018;-74
2022/10/19 07:46:09;;;;;;;1.80;0.30;;;;;;;13.23;73.53;100114.18;1714718;84;21395;-72
2022/10/19 07:48:36;;;;;;;2.58;0.50;;;;;;;13.29;73.38;100111.98;1715268;83;21181;-75
2022/10/19 07:51:08;;;;;;;5.35;4.85;;;;;;;13.38;73.17;100113.95;1715067;83;21065;-73
2022/10/19 07:53:36;;;;;;;2.22;1.95;;;;;;;13.49;73.04;100116.49;1715012;83;21304;-73
2022/10/19 07:56:09;;;;;;;1.40;1.30;;;;;;;13.58;72.53;100111.17;1715223;83;21136;-73
2022/10/19 07:58:37;;;;;;;2.55;2.35;;;;;;;13.61;71.69;100106.21;1714461;84;21626;-72
2022/10/19 08:01:19;;;;;;;2.98;0.95;;;;;;;13.62;71.69;100103.04;1714988;83;21069;-72
2022/10/19 08:03:46;;;;;;;2.85;0.57;;;;;;;13.59;71.51;100106.13;1715045;83;21138;-74
2022/10/19 08:06:17;;;;;;;2.80;0.37;;;;;;;13.57;71.78;100106.87;1714989;83;21073;-77
2022/10/19 08:08:46;;;;;;;5.47;1.47;;;;;;;13.58;71.63;100111.17;1714979;83;21570;-76
2022/10/19 08:11:31;;;;;;;2.83;0.98;;;;;;;13.61;71.81;100106.21;1715200;83;21086;-72
2022/10/19 08:14:01;;;;;;;1.12;0.82;;;;;;;13.61;71.66;100104.87;1715051;83;20998;-75
2022/10/19 08:16:41;;;;;;;1.67;1.20;;;;;;;13.59;71.67;100096.77;1715114;83;21161;-75
2022/10/19 08:19:15;;;;;;;0.62;0.62;;;;;;;13.60;72.06;100094.40;1715307;83;21034;-74
2022/10/19 08:21:44;;;;;;;0.72;0.30;;;;;;;13.55;72.02;100084.84;1714909;83;21073;-71
2022/10/19 08:24:14;;;;;;;1.32;1.10;;;;;;;13.48;72.29;100092.89;1714877;83;21065;-73
2022/10/19 08:26:42;;;;;;;6.58;6.03;;;;;;;13.47;72.50;100096.62;1715050;83;21352;-76
2022/10/19 08:29:15;;;;;;;1.95;1.47;;;;;;;13.43;72.78;100092.73;1715001;83;21506;-74
2022/10/19 08:31:43;;;;;;;0.78;0.78;;;;;;;13.37;72.80;100097.08;1715379;84;21487;-73
2022/10/19 08:34:12;;;;;;;0.65;0.60;;;;;;;13.36;72.95;100090.59;1715077;83;21002;-75
2022/10/19 08:36:38;;;;;;;0.40;0.40;;;;;;;13.33;72.65;100094.50;1715083;83;21140;-74
2022/10/19 08:39:07;;;;;;;0.82;0.28;;;;;;;13.29;72.63;100096.45;1715096;83;21076;-72
2022/10/19 08:42:01;;;;;;;0.82;0.50;;;;;;;13.29;72.52;100095.93;1714741;84;21582;-77
2022/10/19 08:44:39;;;;;;;0.20;0.10;;;;;;;13.28;72.91;100094.30;1714905;83;21598;-76
2022/10/19 08:47:49;;;;;;;0.68;0.30;;;;;;;13.29;72.55;100089.77;1715072;84;21093;-72
2022/10/19 08:50:32;;;;;;;1.32;0.30;;;;;;;13.33;72.34;100091.01;1715035;84;21053;-72
2022/10/19 08:53:14;;;;;;;1.52;0.70;;;;;;;13.43;72.15;100092.73;1714835;83;21026;-72
2022/10/19 08:55:56;;;;;;;0.80;0.20;;;;;;;13.56;71.64;100098.52;1715797;84;21042;-71
2022/10/19 08:58:49;;;;;;;1.27;0.45;;;;;;;13.57;71.11;100093.48;1714728;84;21518;-73
2022/10/19 09:01:30;;;;;;;0.80;0.40;;;;;;;13.54;71.33;100093.89;1715412;83;21057;-74
2022/10/19 09:04:18;;;;;;;0.78;0.20;;;;;;;13.55;71.46;100102.24;1715439;83;21097;-72
2022/10/19 09:07:16;;;;;;;1.27;0.25;;;;;;;13.60;70.90;100096.55;1715642;83;21114;-72
2022/10/19 09:09:47;;;;;;;0.72;0.20;;;;;;;13.66;70.10;100098.89;1715395;84;21042;-75
2022/10/19 09:12:19;;;;;;;1.37;0.37;;;;;;;13.68;69.87;100096.81;1715757;83;21025;-72
2022/10/19 09:15:07;;;;;;;1.55;0.65;;;;;;;13.69;69.98;100102.46;1711830;84;21053;-71
2022/10/19 09:17:35;;;;;;;1.98;0.33;;;;;;;13.71;69.94;100101.75;1715556;84;20970;-73
2022/10/19 09:20:16;;;;;;;0.70;0.25;;;;;;;13.66;70.38;100093.53;1715531;83;21058;-76
2022/10/19 09:22:43;;;;;;;0.98;0.65;;;;;;;13.61;70.49;100090.14;1715960;83;21498;-72
2022/10/19 09:25:19;;;;;;;2.22;1.47;;;;;;;13.59;70.71;100092.22;1715508;83;21002;-74
2022/10/19 09:28:21;;;;;;;4.37;0.80;;;;;;;13.64;70.86;100094.27;1715901;83;21480;-73
2022/10/19 09:30:50;;;;;;;1.77;0.45;;;;;;;13.68;69.96;100087.44;1715596;84;21479;-76
2022/10/19 09:33:27;;;;;;;0.85;0.33;;;;;;;13.70;69.32;100086.70;1715676;83;21827;-72
2022/10/19 09:35:55;;;;;;;4.42;0.90;;;;;;;13.67;68.74;100081.77;1715968;83;21095;-75
2022/10/19 09:38:26;;;;;;;1.30;0.30;;;;;;;13.74;68.39;100080.41;1715733;83;21096;-72
2022/10/19 09:41:17;;;;;;;2.10;1.05;;;;;;;13.81;67.59;100079.33;1715448;83;21507;-74
2022/10/19 09:43:52;;;;;;;1.45;0.40;;;;;;;13.92;67.12;100087.20;1715181;84;21117;-73
2022/10/19 09:46:51;;;;;;;3.35;2.00;;;;;;;14.01;66.55;100081.04;1715884;83;21083;-75
2022/10/19 09:49:42;;;;;;;2.80;0.60;;;;;;;14.05;66.48;100078.75;1715627;83;20994;-75
2022/10/19 09:52:33;;;;;;;1.50;0.40;;;;;;;14.01;66.72;100071.66;1715837;83;21049;-74
2022/10/19 09:55:08;;;;;;;2.37;0.50;;;;;;;13.96;66.77;100068.30;1716113;84;21077;-73
2022/10/19 09:57:48;;;;;;;0.98;0.35;;;;;;;13.93;66.42;100074.61;1713920;84;21064;-74
2022/10/19 10:00:27;;;;;;;10.93;8.93;;;;;;;13.90;66.74;100073.70;1714825;83;21058;-74
2022/10/19 10:02:54;;;;;;;3.75;1.65;;;;;;;13.85;66.91;100070.87;1714457;84;21638;-79
2022/10/19 10:05:38;;;;;;;7.33;1.32;;;;;;;13.80;67.10;100068.30;1706748;78;21207;-78
2022/10/19 10:08:15;;;;;;;0.75;0.40;;;;;;;13.79;67.24;100071.21;1702157;83;21128;-75
2022/10/19 10:10:53;;;;;;;5.28;1.70;;;;;;;13.77;67.34;100071.42;1702130;83;21020;-76
2022/10/19 10:13:24;;;;;;;10.35;0.80;;;;;;;13.74;67.73;100071.84;1702457;83;21544;-77
2022/10/19 10:15:58;;;;;;;1.50;0.40;;;;;;;13.76;68.02;100072.45;1702660;83;21017;-78
2022/10/19 10:18:28;;;;;;;1.20;0.33;;;;;;;13.82;68.09;100060.05;1702358;83;21001;-74
2022/10/19 10:20:59;;;;;;;2.77;0.40;;;;;;;13.89;68.47;100061.36;1702370;84;21125;-73
2022/10/19 10:23:31;;;;;;;4.00;1.30;;;;;;;13.95;68.26;100058.61;1702709;83;21477;-77
2022/10/19 10:25:59;;;;;;;0.98;0.60;;;;;;;14.01;67.95;100044.86;1702364;83;21524;-77
2022/10/19 10:28:29;;;;;;;2.27;1.25;;;;;;;14.06;67.98;100047.72;1702500;84;21111;-78
2022/10/19 10:31:05;;;;;;;3.15;0.98;;;;;;;14.07;67.77;100045.35;1702650;83;21056;-80
2022/10/19 10:33:35;;;;;;;2.30;0.50;;;;;;;14.03;67.69;100042.78;1702678;83;20958;-73
2022/10/19 10:36:09;;;;;;;2.92;0.95;;;;;;;14.02;67.56;100043.31;1702065;83;21056;-76
2022/10/19 10:38:44;;;;;;;2.95;0.98;;;;;;;14.00;67.48;100045.39;1702415;83;21061;-74
2022/10/19 10:41:17;;;;;;;1.25;0.60;;;;;;;13.97;67.78;100038.30;1702058;83;21056;-74
2022/10/19 10:43:58;;;;;;;2.65;1.00;;;;;;;13.98;67.90;100042.64;1702230;83;21044;-76
2022/10/19 10:46:28;;;;;;;4.10;1.52;;;;;;;13.98;67.95;100046.66;1689910;84;21106;-75
2022/10/19 10:49:01;;;;;;;4.40;0.93;;;;;;;13.94;68.13;100036.08;1702055;83;21025;-74
2022/10/19 10:51:44;;;;;;;2.80;1.25;;;;;;;13.89;68.34;100036.72;1702223;83;21159;-75
2022/10/19 10:54:27;;;;;;;3.67;0.95;;;;;;;13.88;68.28;100036.43;1679326;84;21112;-79
2022/10/19 10:57:18;;;;;;;6.92;1.32;;;;;;;13.91;67.97;100027.13;1702657;83;21056;-75
2022/10/19 11:00:10;;;;;;;1.67;0.98;;;;;;;13.97;67.41;100016.87;1702305;83;21565;-75
2022/10/19 11:02:55;;;;;;;6.22;3.95;;;;;;;14.02;66.11;100031.78;1700419;84;21061;-73
2022/10/19 11:05:32;;;;;;;3.83;0.80;;;;;;;14.09;64.59;100023.17;1701481;84;21036;-74
2022/10/19 11:08:17;;;;;;;2.30;0.53;;;;;;;14.16;63.87;100013.19;1702492;83;21093;-72
2022/10/19 11:10:59;;;;;;;1.70;0.40;;;;;;;14.21;62.32;100021.40;1702585;83;21557;-71
2022/10/19 11:13:38;;;;;;;4.85;0.75;;;;;;;14.29;61.34;100002.87;1702277;83;21016;-71
2022/10/19 11:16:42;;;;;;;0.88;0.40;;;;;;;14.36;60.19;100010.86;1702009;82;21594;-70
2022/10/19 11:19:43;;;;;;;1.20;0.35;;;;;;;14.40;57.67;100005.35;1702723;83;21028;-71
2022/10/19 11:22:33;;;;;;;0.98;0.55;;;;;;;14.40;57.07;99992.76;1702314;83;21878;-72
2022/10/19 11:25:24;;;;;;;4.50;0.37;;;;;;;14.40;57.24;99996.78;1702428;83;21047;-74
2022/10/19 11:28:17;;;;;;;0.78;0.40;;;;;;;14.46;56.74;99992.39;1696939;84;21670;-75
2022/10/19 11:31:14;;;;;;;2.25;0.78;;;;;;;14.55;54.85;99978.18;1702568;84;21164;-72
2022/10/19 11:34:08;;;;;;;2.70;0.45;;;;;;;14.60;53.36;99979.70;1702254;83;21279;-70
2022/10/19 11:37:05;;;;;;;3.40;0.85;;;;;;;14.57;52.48;99967.55;1702771;83;20974;-75
2022/10/19 11:39:53;;;;;;;2.08;0.30;;;;;;;14.52;53.11;99960.69;1705715;83;21014;-77
2022/10/19 11:42:40;;;;;;;1.62;0.68;;;;;;;14.53;53.65;99959.62;1705768;82;21164;-78
2022/10/19 11:45:23;;;;;;;1.40;0.45;;;;;;;14.54;53.65;99967.14;1702995;82;21081;-71
2022/10/19 11:48:15;;;;;;;1.10;0.60;;;;;;;14.51;54.15;99959.03;1651116;87;21152;-70
2022/10/19 11:50:56;;;;;;;4.08;0.50;;;;;;;14.51;54.33;99947.49;1653428;87;21259;-70
2022/10/19 11:53:59;;;;;;;0.95;0.90;;;;;;;14.52;54.58;99951.30;1635578;85;21037;-69